This is the latest recevied weather packets stored in our database for station/object DG8SF-13. If no packets are shown the sender has not sent any weather packets the latest 10 day(s).
| Time | Temp. | Humidity | Pressure | Rain* | Wind** | Luminosity | Snow |
|---|---|---|---|---|---|---|---|
| 1787467915 | 16.67° C | 69% | 1022.6 hPa | 0 mm | - | - | - |
| 1787467577 | 15.56° C | 72% | 1022.7 hPa | 0 mm | - | - | - |
| 1787467266 | 15.56° C | 72% | 1022.7 hPa | 0 mm | - | - | - |
| 1787466942 | 15° C | 75% | 1022.7 hPa | 0 mm | - | - | - |
| 1787466631 | 13.33° C | 78% | 1022.6 hPa | 0 mm | - | - | - |
| 1787466317 | 12.22° C | 86% | 1022.6 hPa | 0 mm | - | - | - |
| 1787466007 | 11.11° C | 90% | 1022.6 hPa | 0 mm | - | - | - |
| 1787465695 | 10.56° C | 92% | 1022.7 hPa | 0 mm | - | - | - |
| 1787465382 | 10.56° C | 93% | 1022.7 hPa | 0 mm | - | - | - |
| 1787465057 | 10° C | 97% | 1022.6 hPa | 0 mm | - | - | - |
| 1787464746 | 9.44° C | 98% | 1022.6 hPa | 0 mm | - | - | - |
| 1787464436 | 9.44° C | 99% | 1022.6 hPa | 0 mm | - | - | - |
| 1787464122 | 8.89° C | 99% | 1022.6 hPa | 0 mm | - | - | - |
| 1787463809 | 8.89° C | 99% | 1022.6 hPa | 0 mm | - | - | - |
| 1787463497 | 8.89° C | 99% | 1022.5 hPa | 0 mm | - | - | - |
| 1787463188 | 8.33° C | 98% | 1022.5 hPa | 0 mm | - | - | - |
| 1787462874 | 7.78° C | 98% | 1022.5 hPa | 0 mm | - | - | - |
| 1787462550 | 7.78° C | 98% | 1022.4 hPa | 0 mm | - | - | - |
| 1787462238 | 7.78° C | 98% | 1022.5 hPa | 0 mm | - | - | - |
| 1787461927 | 7.78° C | 98% | 1022.4 hPa | 0 mm | - | - | - |
| 1787461613 | 7.78° C | 98% | 1022.3 hPa | 0 mm | - | - | - |
| 1787461302 | 7.78° C | 98% | 1022.4 hPa | 0 mm | - | - | - |
| 1787460989 | 7.78° C | 98% | 1022.2 hPa | 0 mm | - | - | - |
| 1787460679 | 6.67° C | 98% | 1022.2 hPa | 0 mm | - | - | - |
| 1787460365 | 7.22° C | 98% | 1022.1 hPa | 0 mm | - | - | - |
* Rain latest hour (hover to see other rain measurements)
** Current wind speed in m/s (hover to see current wind gust speed)